• Join FlightAware (Why Join?)
  • Login
  • US Flag 
03:17PM EDT


 

Airport Tracker/Info


-or-


 

Live Flight TrackerFlight Track Log ✈ AWE3374 ✈ 6 Jun 2013 ✈ KBUF - KDCA

Flight Track Log - Related Links

Times and Time Zones

All times are in EDT time to prevent confusion due to time zone crossing. See the AWE3374 flight status page for this flight to view local times or setup timezone preferences in your user account.

Time Position Orientation Groundspeed Altitude Reporting Facility
EDT Latitude Longitude Course Direction KTS MPH feet Rate Location/Type
12:22PM 42.9500 -78.7167 174° South 144 166 1,800  Level Buffalo TRACON
12:23PM 43.0000 -78.6333 51° Northeast 254 292 3,700 2,160 Climbing Buffalo TRACON
12:24PM 42.6609 -78.6076 175° South  Level Estimated
12:24PM 42.9767 -78.5883 125° Southeast 270 311 6,100  Level Cleveland Center
12:25PM 42.5682 -78.6505 199° South  Level FlightAware Approximate
12:25PM 42.9097 -78.5875 179° South 274 315 9,700  Level Cleveland Center
12:26PM 42.4755 -78.6079 173° South  Level Estimated
12:26PM 42.8308 -78.5931 183° South 287 330 10,000  Level Cleveland Center
12:27PM 42.3828 -78.5654 174° South  Level Estimated
12:27PM 42.7475 -78.5956 181° South 289 333 11,500  Level Cleveland Center
12:28PM 42.6683 -78.5981 181° South 284 327 14,700 3,000 Climbing Cleveland Center
12:29PM 42.5850 -78.6064 184° South 290 334 17,500 2,760 Climbing Cleveland Center
12:30PM 42.5017 -78.6089 181° South 295 339 20,300 2,400 Climbing Cleveland Center
12:31PM 42.4142 -78.6144 183° South 302 348 22,400 1,320 Climbing Cleveland Center
12:32PM 42.3247 -78.6200 183° South 316 364 23,000 300 Climbing Cleveland Center
12:33PM 42.2347 -78.5947 168° South 321 369 23,000  Level Cleveland Center
12:34PM 42.1422 -78.5528 161° South 339 390 23,000  Level Cleveland Center
12:35PM 42.0519 -78.5111 161° South 339 390 23,000  Level Cleveland Center
12:36PM 41.9636 -78.4692 161° South 345 397 23,000  Level Cleveland Center
12:37PM 41.8711 -78.4275 161° South 351 404 23,000  Level Cleveland Center
12:38PM 41.7847 -78.3861 160° South 346 398 23,000  Level Cleveland Center
12:39PM 41.6922 -78.3447 162° South 346 398 23,000  Level Cleveland Center
12:40PM 41.6058 -78.3061 162° South 346 398 23,000  Level Cleveland Center
12:41PM 41.5175 -78.2647 161° South 346 398 23,000  Level Cleveland Center
12:42PM 41.4272 -78.2236 161° South 346 398 23,000  Level Cleveland Center
12:43PM 41.3622 -78.1933 161° South 349 402 23,000  Level New York Center
12:44PM 41.2811 -78.1594 163° South 349 402 23,000  Level New York Center
12:45PM 41.1958 -78.1200 161° South 349 402 23,000  Level New York Center
12:46PM 41.1025 -78.0794 162° South 344 396 23,000  Level New York Center
12:47PM 41.0136 -78.0369 160° South 344 396 23,000  Level New York Center
12:48PM 40.9242 -77.9972 161° South 344 396 23,000 -780 Level New York Center
12:49PM 40.8403 -77.9361 151° Southeast 344 396 21,500 -1,500 Descending New York Center
12:50PM 40.7589 -77.8700 148° Southeast 344 396 20,000 -1,500 Descending New York Center
12:51PM 40.6772 -77.8069 150° Southeast 344 396 18,500 -1,020 Descending New York Center
12:52PM 40.5975 -77.7439 149° Southeast 339 390 18,000 -300 Descending New York Center
12:53PM 40.5178 -77.6839 150° Southeast 339 390 18,000  Level New York Center
12:54PM 40.4400 -77.6217 149° Southeast 334 384 18,000  Level New York Center
12:55PM 40.3500 -77.5556 151° Southeast 334 384 18,000  Level New York Center
12:56PM 40.2803 -77.4997 149° Southeast 334 384 18,000  Level New York Center
12:57PM 40.1942 -77.4342 150° Southeast 334 384 18,000  Level New York Center
12:58PM 40.1264 -77.3789 148° Southeast 324 373 18,000  Level New York Center
12:59PM 40.0425 -77.3167 150° Southeast 319 367 18,000 -600 Level New York Center
01:00PM 39.9744 -77.2642 149° Southeast 319 367 16,800 -1,380 Descending New York Center
01:01PM 39.8922 -77.2025 150° Southeast 319 367 15,300 -960 Descending New York Center
01:02PM 39.8283 -77.1508 148° Southeast 312 359 15,000 -180 Descending New York Center
01:02PM 39.7500 -77.1000 153° Southeast 304 350 15,000  Level Potomac TRACON
01:03PM 39.6833 -77.0500 150° Southeast 303 349 15,000  Level Potomac TRACON
01:04PM 39.6000 -76.9833 148° Southeast 301 346 15,000 -780 Level Potomac TRACON
01:05PM 39.5333 -76.9333 150° Southeast 299 344 13,500 -1,500 Descending Potomac TRACON
01:06PM 39.4667 -76.8833 150° Southeast 291 335 12,100 -780 Descending Potomac TRACON
01:07PM 39.4000 -76.8333 150° Southeast 288 331 12,000 -60 Descending Potomac TRACON
01:08PM 39.3333 -76.7833 150° Southeast 293 337 12,000 -240 Level Potomac TRACON
01:09PM 39.2500 -76.7167 148° Southeast 292 336 11,600 -900 Descending Potomac TRACON
01:10PM 39.1833 -76.6833 159° South 285 328 10,200 -840 Descending Potomac TRACON
01:11PM 39.1167 -76.7167 201° Southwest 275 316 10,000 -300 Descending Potomac TRACON
01:12PM 39.0667 -76.7833 226° Southwest 268 308 9,600 -1,080 Descending Potomac TRACON
01:13PM 39.0167 -76.8500 226° Southwest 269 310 7,900 -1,800 Descending Potomac TRACON
01:14PM 39.0167 -76.9500 270° West 273 314 6,100 -1,740 Descending Potomac TRACON
01:15PM 39.0333 -77.0500 282° West 263 303 4,500 -1,500 Descending Potomac TRACON
01:16PM 39.0167 -77.1333 256° West 261 300 3,100 -1,440 Descending Potomac TRACON